Terminal Aerodrome Forecast
Issued by NWS Chicago, IL

Home | Current Version | Previous Version | Graphics & Text | Print | Product List | Glossary On
Versions: 1 2 3 4 5 6 7 8 9 10 11 12 13 14 15 16 17 18 19 20 21 22 23 24 25 26 27 28
220
FTUS43 KLOT 140255 AAA
TAFRFD
TAF AMD
KRFD 140255Z 1403/1424 VRB03KT P6SM FEW250
     FM141600 19008KT P6SM BKN120
     FM142000 19011KT P6SM OVC050
     FM142300 18012G17KT 5SM -SN OVC035=

USA.gov is the U.S. government's official web portal to all federal, state and local government web resources and services.